createdAt,value
2023-09-23T00:01:27.031Z,99022.78
2023-09-23T00:03:53.973Z,99026.72
2023-09-23T00:06:23.722Z,99038.94
2023-09-23T00:08:50.318Z,99030.41
2023-09-23T00:11:16.881Z,99039.75
2023-09-23T00:13:43.947Z,99035.75
2023-09-23T00:16:15.876Z,99029.34
2023-09-23T00:18:47.026Z,99026.50
2023-09-23T00:21:14.224Z,99010.72
2023-09-23T00:23:41.382Z,99016.19
2023-09-23T00:26:08.619Z,99013.56
2023-09-23T00:28:35.532Z,99026.13
2023-09-23T00:31:13.121Z,99026.09
2023-09-23T00:33:40.352Z,99027.28
2023-09-23T00:36:08.651Z,99031.97
2023-09-23T00:38:35.745Z,99032.53
2023-09-23T00:41:04.881Z,99028.13
2023-09-23T00:43:33.809Z,99030.03
2023-09-23T00:46:01.809Z,99031.34
2023-09-23T00:48:32.256Z,99023.84
2023-09-23T00:50:58.851Z,99030.88
2023-09-23T00:53:26.830Z,99036.25
2023-09-23T00:55:54.038Z,99035.03
2023-09-23T00:58:23.046Z,99037.91
2023-09-23T01:00:50.546Z,99039.66
2023-09-23T01:03:17.412Z,99034.38
2023-09-23T01:05:48.098Z,99042.44
2023-09-23T01:08:31.172Z,99046.53
2023-09-23T01:10:57.785Z,99044.94
2023-09-23T01:13:25.898Z,99061.00
2023-09-23T01:15:52.865Z,99064.47
2023-09-23T01:18:19.423Z,99061.91
2023-09-23T01:20:52.577Z,99054.97
2023-09-23T01:23:19.211Z,99057.44
2023-09-23T01:25:45.778Z,99068.16
2023-09-23T01:28:12.555Z,99060.84
2023-09-23T01:30:41.597Z,99072.38
2023-09-23T01:33:10.036Z,99074.13
2023-09-23T01:35:36.998Z,99070.63
2023-09-23T01:38:07.459Z,99065.38
2023-09-23T01:40:36.200Z,99063.41
2023-09-23T01:43:03.317Z,99064.69
2023-09-23T01:45:30.613Z,99077.16
2023-09-23T01:47:58.444Z,99081.97
2023-09-23T01:50:27.263Z,99088.56
2023-09-23T01:52:57.222Z,99085.56
2023-09-23T01:55:23.797Z,99078.22
2023-09-23T01:57:50.338Z,99091.22
2023-09-23T02:00:25.631Z,99090.66
2023-09-23T02:02:55.422Z,99090.22
2023-09-23T02:05:23.450Z,99085.97
2023-09-23T02:07:51.446Z,99095.00
2023-09-23T02:10:18.899Z,99101.97
2023-09-23T02:12:46.048Z,99106.13
2023-09-23T02:15:18.449Z,99103.44
2023-09-23T02:17:48.865Z,99100.94
2023-09-23T02:20:24.229Z,99092.28
2023-09-23T02:22:56.368Z,99103.66
2023-09-23T02:25:26.717Z,99101.28
2023-09-23T02:27:54.119Z,99110.16
2023-09-23T02:30:20.831Z,99120.00
2023-09-23T02:32:48.288Z,99125.94
2023-09-23T02:35:16.911Z,99123.41
2023-09-23T02:37:49.472Z,99134.50
2023-09-23T02:40:16.473Z,99131.47
2023-09-23T02:42:44.874Z,99131.31
2023-09-23T02:45:13.580Z,99138.56
2023-09-23T02:47:41.385Z,99146.50
2023-09-23T02:50:11.013Z,99151.41
2023-09-23T02:52:40.124Z,99147.34
2023-09-23T02:55:08.788Z,99146.31
2023-09-23T02:57:38.528Z,99143.03
2023-09-23T03:00:17.095Z,99133.69
2023-09-23T03:02:46.938Z,99126.13
2023-09-23T03:05:18.127Z,99135.97
2023-09-23T03:07:49.312Z,99138.84
2023-09-23T03:10:20.055Z,99132.84
2023-09-23T03:12:58.119Z,99142.44
2023-09-23T03:15:34.855Z,99145.19
2023-09-23T03:18:02.180Z,99141.78
2023-09-23T03:20:28.962Z,99141.44
2023-09-23T03:22:55.540Z,99143.88
2023-09-23T03:25:22.162Z,99117.81
2023-09-23T03:27:50.031Z,99113.06
2023-09-23T03:30:18.164Z,99114.56
2023-09-23T03:32:46.719Z,99122.91
2023-09-23T03:35:25.098Z,99116.47
2023-09-23T03:37:52.013Z,99109.06
2023-09-23T03:40:25.638Z,99108.41
2023-09-23T03:42:52.381Z,99114.25
2023-09-23T03:45:19.177Z,99125.03
2023-09-23T03:47:47.689Z,99133.44
2023-09-23T03:50:15.631Z,99131.72
2023-09-23T03:52:43.394Z,99135.09
2023-09-23T03:55:13.190Z,99124.75
2023-09-23T03:57:40.216Z,99145.13
2023-09-23T04:00:16.339Z,99153.09
2023-09-23T04:02:44.358Z,99156.50
2023-09-23T04:05:11.102Z,99148.34
2023-09-23T04:07:41.362Z,99148.00
2023-09-23T04:10:10.290Z,99150.81
2023-09-23T04:12:38.126Z,99158.69
2023-09-23T04:15:06.286Z,99170.59
2023-09-23T04:17:32.787Z,99167.03
2023-09-23T04:19:59.310Z,99163.47
2023-09-23T04:22:25.876Z,99155.16
2023-09-23T04:24:52.375Z,99164.31
2023-09-23T04:27:18.864Z,99156.41
2023-09-23T04:29:45.366Z,99155.91
2023-09-23T04:32:14.230Z,99162.13
2023-09-23T04:34:41.017Z,99161.94
2023-09-23T04:37:07.586Z,99163.22
2023-09-23T04:39:34.125Z,99165.53
2023-09-23T04:42:01.792Z,99168.88
2023-09-23T04:44:28.350Z,99175.06
2023-09-23T04:46:55.049Z,99167.88
2023-09-23T04:49:22.678Z,99163.38
2023-09-23T04:51:49.262Z,99164.56
2023-09-23T04:54:15.847Z,99179.06
2023-09-23T04:56:43.060Z,99173.63
2023-09-23T04:59:09.589Z,99169.47
2023-09-23T05:01:36.058Z,99178.16
2023-09-23T05:04:03.651Z,99186.84
2023-09-23T05:06:30.245Z,99191.44
2023-09-23T05:08:56.782Z,99201.97
2023-09-23T05:11:24.693Z,99207.91
2023-09-23T05:13:51.393Z,99206.94
2023-09-23T05:16:18.262Z,99208.84
2023-09-23T05:18:45.002Z,99208.44
2023-09-23T05:21:11.711Z,99208.44
2023-09-23T05:23:38.463Z,99217.59
2023-09-23T05:26:06.136Z,99229.31
2023-09-23T05:28:32.735Z,99230.16
2023-09-23T05:31:00.097Z,99237.59
2023-09-23T05:33:26.803Z,99248.38
2023-09-23T05:35:53.383Z,99264.03
2023-09-23T05:38:20.810Z,99267.84
2023-09-23T05:40:47.430Z,99274.44
2023-09-23T05:43:13.934Z,99285.16
2023-09-23T05:45:40.654Z,99286.84
2023-09-23T05:48:07.381Z,99290.09
2023-09-23T05:50:34.033Z,99301.03
2023-09-23T05:53:00.585Z,99307.06
2023-09-23T05:55:30.035Z,99317.50
2023-09-23T05:57:56.545Z,99314.88
2023-09-23T06:00:23.226Z,99316.41
2023-09-23T06:02:49.905Z,99318.09
2023-09-23T06:05:16.783Z,99306.72
2023-09-23T06:07:43.877Z,99312.81
2023-09-23T06:10:12.335Z,99315.38
2023-09-23T06:12:39.846Z,99311.66
2023-09-23T06:15:06.940Z,99298.94
2023-09-23T06:17:33.843Z,99322.81
2023-09-23T06:20:02.150Z,99316.38
2023-09-23T06:22:29.053Z,99321.25
2023-09-23T06:24:56.122Z,99326.91
2023-09-23T06:27:22.959Z,99340.19
2023-09-23T06:29:49.467Z,99355.91
2023-09-23T06:32:16.076Z,99368.28
2023-09-23T06:34:42.628Z,99385.31
2023-09-23T06:37:09.133Z,99410.47
2023-09-23T06:39:35.747Z,99438.84
2023-09-23T06:42:02.315Z,99436.28
2023-09-23T06:44:29.042Z,99438.47
2023-09-23T06:46:55.700Z,99449.72
2023-09-23T06:49:22.416Z,99460.16
2023-09-23T06:51:49.024Z,99469.59
2023-09-23T06:54:15.633Z,99466.09
2023-09-23T06:56:42.151Z,99462.00
2023-09-23T06:59:09.175Z,99467.47
2023-09-23T07:01:36.204Z,99479.69
2023-09-23T07:04:03.565Z,99480.31
2023-09-23T07:06:30.167Z,99481.91
2023-09-23T07:08:56.917Z,99478.09
2023-09-23T07:11:24.804Z,99498.25
2023-09-23T07:13:51.664Z,99507.91
2023-09-23T07:16:18.424Z,99499.00
2023-09-23T07:18:45.754Z,99489.28
2023-09-23T07:21:13.107Z,99503.69
2023-09-23T07:23:39.942Z,99509.59
2023-09-23T07:26:07.090Z,99519.97
2023-09-23T07:28:34.067Z,99519.16
2023-09-23T07:31:00.865Z,99516.28
2023-09-23T07:33:27.821Z,99535.72
2023-09-23T07:35:57.133Z,99536.72
2023-09-23T07:38:23.677Z,99533.75
2023-09-23T07:40:50.630Z,99529.28
2023-09-23T07:43:17.209Z,99511.19
2023-09-23T07:45:43.815Z,99525.97
2023-09-23T07:48:10.651Z,99522.41
2023-09-23T07:50:37.316Z,99520.63
2023-09-23T07:53:04.059Z,99514.44
2023-09-23T07:55:31.386Z,99501.41
2023-09-23T07:57:58.148Z,99479.69
2023-09-23T08:00:27.232Z,99461.41
2023-09-23T08:02:55.092Z,99449.03
2023-09-23T08:05:25.455Z,99438.25
2023-09-23T08:07:52.604Z,99420.66
2023-09-23T08:10:19.415Z,99395.03
2023-09-23T08:12:46.085Z,99365.00
2023-09-23T08:15:12.882Z,99363.97
2023-09-23T08:17:40.799Z,99363.69
2023-09-23T08:20:37.774Z,99373.13
2023-09-23T08:23:04.965Z,99371.06
2023-09-23T08:25:31.530Z,99362.38
2023-09-23T08:27:58.194Z,99367.63
2023-09-23T08:30:24.797Z,99364.94
2023-09-23T08:32:51.677Z,99370.34
2023-09-23T08:35:18.356Z,99373.34
2023-09-23T08:37:47.299Z,99380.97
2023-09-23T08:40:16.348Z,99370.53
2023-09-23T08:42:42.938Z,99376.28
2023-09-23T08:45:10.548Z,99384.75
2023-09-23T08:47:38.612Z,99383.03
2023-09-23T08:50:11.572Z,99377.78
2023-09-23T08:52:38.972Z,99364.91
2023-09-23T08:55:08.553Z,99369.16
2023-09-23T08:57:35.263Z,99390.13
2023-09-23T09:00:01.909Z,99401.88
2023-09-23T09:02:30.671Z,99408.91
2023-09-23T09:04:58.471Z,99435.06
2023-09-23T09:07:36.239Z,99448.31
2023-09-23T09:10:04.344Z,99452.06
2023-09-23T09:12:34.594Z,99457.75
2023-09-23T09:15:01.846Z,99464.81
2023-09-23T09:17:28.591Z,99468.84
2023-09-23T09:19:55.166Z,99467.13
2023-09-23T09:22:21.712Z,99477.84
2023-09-23T09:24:48.234Z,99474.19
2023-09-23T09:27:15.585Z,99471.56
2023-09-23T09:29:42.852Z,99479.19
2023-09-23T09:32:11.457Z,99484.72
2023-09-23T09:34:46.723Z,99483.53
2023-09-23T09:37:19.477Z,99480.59
2023-09-23T09:39:54.397Z,99482.38
2023-09-23T09:42:32.016Z,99482.44
2023-09-23T09:44:58.845Z,99462.00
2023-09-23T09:47:25.594Z,99466.06
2023-09-23T09:49:53.632Z,99472.69
2023-09-23T09:52:23.102Z,99470.06
2023-09-23T09:54:55.433Z,99460.91
2023-09-23T09:57:30.308Z,99456.81
2023-09-23T10:00:01.252Z,99468.16
2023-09-23T10:02:29.384Z,99464.91
2023-09-23T10:05:03.614Z,99461.09
2023-09-23T10:07:50.027Z,99460.09
2023-09-23T10:10:16.546Z,99459.31
2023-09-23T10:12:49.998Z,99465.25
2023-09-23T10:15:25.549Z,99456.34
2023-09-23T10:17:54.837Z,99472.06
2023-09-23T10:20:24.771Z,99479.28
2023-09-23T10:22:52.684Z,99477.44
2023-09-23T10:25:19.216Z,99480.41
2023-09-23T10:28:01.710Z,99477.19
2023-09-23T10:30:28.204Z,99470.25
2023-09-23T10:32:54.740Z,99475.81
2023-09-23T10:35:24.603Z,99480.75
2023-09-23T10:37:51.165Z,99485.63
2023-09-23T10:40:18.595Z,99490.63
2023-09-23T10:42:47.893Z,99482.31
2023-09-23T10:45:15.736Z,99480.13
2023-09-23T10:47:45.190Z,99478.38
2023-09-23T10:50:12.013Z,99490.81
2023-09-23T10:52:38.796Z,99506.09
2023-09-23T10:55:06.771Z,99505.59
2023-09-23T10:57:33.314Z,99507.94
2023-09-23T11:00:00.552Z,99496.59
2023-09-23T11:02:27.309Z,99522.22
2023-09-23T11:04:55.612Z,99523.81
2023-09-23T11:07:22.217Z,99535.63
2023-09-23T11:09:48.765Z,99544.19
2023-09-23T11:12:16.764Z,99536.31
2023-09-23T11:14:47.174Z,99539.63
2023-09-23T11:17:32.177Z,99538.38
2023-09-23T11:20:00.296Z,99545.78
2023-09-23T11:22:30.838Z,99544.81
2023-09-23T11:24:58.979Z,99543.66
2023-09-23T11:27:26.699Z,99536.28
2023-09-23T11:29:53.806Z,99529.81
2023-09-23T11:32:22.200Z,99534.25
2023-09-23T11:34:50.018Z,99543.06
2023-09-23T11:37:18.101Z,99541.44
2023-09-23T11:39:44.886Z,99540.50
2023-09-23T11:42:11.627Z,99529.44
2023-09-23T11:44:38.176Z,99530.63
2023-09-23T11:47:05.204Z,99537.34
2023-09-23T11:49:31.710Z,99530.13
2023-09-23T11:51:58.528Z,99535.81
2023-09-23T11:54:25.462Z,99544.88
2023-09-23T11:56:52.183Z,99571.75
2023-09-23T11:59:21.708Z,99566.28
2023-09-23T12:01:49.311Z,99564.53
2023-09-23T12:04:15.881Z,99561.59
2023-09-23T12:06:42.439Z,99557.72
2023-09-23T12:09:11.052Z,99551.53
2023-09-23T12:11:37.966Z,99572.47
2023-09-23T12:14:04.661Z,99583.09
2023-09-23T12:16:31.230Z,99594.84
2023-09-23T12:18:57.850Z,99589.50
2023-09-23T12:21:24.304Z,99587.72
2023-09-23T12:23:52.329Z,99593.28
2023-09-23T12:26:19.979Z,99606.19
2023-09-23T12:28:46.743Z,99612.91
2023-09-23T12:31:14.208Z,99615.94
2023-09-23T12:33:42.082Z,99622.06
2023-09-23T12:36:08.714Z,99607.00
2023-09-23T12:38:35.354Z,99610.53
2023-09-23T12:41:02.052Z,99609.69
2023-09-23T12:43:29.305Z,99596.97
2023-09-23T12:45:55.839Z,99596.41
2023-09-23T12:48:22.516Z,99600.25
2023-09-23T12:50:49.442Z,99611.25
2023-09-23T12:53:16.057Z,99627.06
2023-09-23T12:55:42.554Z,99633.25
2023-09-23T12:58:09.316Z,99624.94
2023-09-23T13:00:35.875Z,99625.91
2023-09-23T13:03:02.585Z,99628.44
2023-09-23T13:05:29.505Z,99627.78
2023-09-23T13:07:56.078Z,99631.97
2023-09-23T13:10:22.609Z,99625.59
2023-09-23T13:12:50.486Z,99634.25
2023-09-23T13:15:17.318Z,99626.53
2023-09-23T13:17:45.027Z,99613.09
2023-09-23T13:20:12.034Z,99609.69
2023-09-23T13:22:38.573Z,99600.75
2023-09-23T13:25:06.239Z,99589.16
2023-09-23T13:27:34.259Z,99585.81
2023-09-23T13:30:00.827Z,99590.78
2023-09-23T13:32:27.410Z,99582.19
2023-09-23T13:34:54.072Z,99587.63
2023-09-23T13:37:20.583Z,99594.78
2023-09-23T13:39:47.165Z,99613.03
2023-09-23T13:42:14.222Z,99623.69
2023-09-23T13:44:41.529Z,99623.91
2023-09-23T13:47:08.147Z,99626.44
2023-09-23T13:49:34.859Z,99629.28
2023-09-23T13:52:01.825Z,99645.75
2023-09-23T13:54:28.302Z,99647.03
2023-09-23T13:56:54.818Z,99637.50
2023-09-23T13:59:21.337Z,99648.72
2023-09-23T14:01:47.924Z,99655.13
2023-09-23T14:04:15.065Z,99647.56
2023-09-23T14:06:41.907Z,99647.56
2023-09-23T14:09:10.110Z,99639.13
2023-09-23T14:11:37.304Z,99648.13
2023-09-23T14:14:04.721Z,99633.09
2023-09-23T14:16:31.919Z,99644.19
2023-09-23T14:18:58.530Z,99646.91
2023-09-23T14:21:25.880Z,99639.28
2023-09-23T14:23:52.501Z,99637.47
2023-09-23T14:26:19.032Z,99618.66
2023-09-23T14:28:47.289Z,99617.09
2023-09-23T14:31:14.152Z,99619.84
2023-09-23T14:33:42.502Z,99620.22
2023-09-23T14:36:09.026Z,99626.72
2023-09-23T14:38:35.581Z,99617.84
2023-09-23T14:41:02.332Z,99617.59
2023-09-23T14:43:28.902Z,99612.41
2023-09-23T14:45:56.137Z,99620.69
2023-09-23T14:48:22.818Z,99611.69
2023-09-23T14:50:50.268Z,99609.56
2023-09-23T14:53:17.375Z,99615.13
2023-09-23T14:55:44.527Z,99614.47
2023-09-23T14:58:11.727Z,99611.78
2023-09-23T15:00:38.547Z,99616.78
2023-09-23T15:03:06.025Z,99618.91
2023-09-23T15:05:32.727Z,99619.81
2023-09-23T15:07:59.436Z,99615.81
2023-09-23T15:10:25.909Z,99617.59
2023-09-23T15:12:54.688Z,99622.91
2023-09-23T15:15:21.444Z,99613.25
2023-09-23T15:17:48.464Z,99607.56
2023-09-23T15:20:15.030Z,99606.34
2023-09-23T15:22:42.132Z,99608.56
2023-09-23T15:25:09.817Z,99616.69
2023-09-23T15:27:36.866Z,99623.50
2023-09-23T15:30:08.393Z,99632.28
2023-09-23T15:32:38.341Z,99635.59
2023-09-23T15:35:06.444Z,99626.63
2023-09-23T15:37:33.814Z,99637.47
2023-09-23T15:40:00.460Z,99631.63
2023-09-23T15:42:27.051Z,99634.97
2023-09-23T15:44:54.211Z,99637.41
2023-09-23T15:47:21.714Z,99644.63
2023-09-23T15:49:48.945Z,99629.47
2023-09-23T15:52:17.049Z,99651.88
2023-09-23T15:54:43.706Z,99634.47
2023-09-23T15:57:11.983Z,99630.19
2023-09-23T15:59:38.981Z,99634.50
2023-09-23T16:02:05.654Z,99624.25
2023-09-23T16:04:33.127Z,99622.41
2023-09-23T16:06:59.886Z,99613.66
2023-09-23T16:09:26.567Z,99624.69
2023-09-23T16:11:53.795Z,99629.66
2023-09-23T16:14:20.449Z,99638.00
2023-09-23T16:16:47.558Z,99636.53
2023-09-23T16:19:14.200Z,99646.19
2023-09-23T16:21:40.688Z,99650.81
2023-09-23T16:24:07.356Z,99654.44
2023-09-23T16:26:35.241Z,99651.53
2023-09-23T16:29:02.318Z,99654.34
2023-09-23T16:31:28.883Z,99655.56
2023-09-23T16:33:56.937Z,99666.59
2023-09-23T16:36:24.634Z,99658.66
2023-09-23T16:38:51.980Z,99678.25
2023-09-23T16:41:18.629Z,99683.38
2023-09-23T16:43:46.270Z,99692.03
2023-09-23T16:46:12.897Z,99692.03
2023-09-23T16:48:39.474Z,99676.16
2023-09-23T16:51:05.985Z,99692.41
2023-09-23T16:53:33.500Z,99702.78
2023-09-23T16:56:01.093Z,99706.97
2023-09-23T16:58:27.871Z,99714.16
2023-09-23T17:00:54.465Z,99721.75
2023-09-23T17:03:22.534Z,99724.72
2023-09-23T17:05:53.389Z,99736.81
2023-09-23T17:08:20.981Z,99751.66
2023-09-23T17:10:47.861Z,99744.47
2023-09-23T17:13:15.791Z,99744.72
2023-09-23T17:15:42.460Z,99758.81
2023-09-23T17:18:09.167Z,99759.13
2023-09-23T17:20:35.893Z,99756.38
2023-09-23T17:23:02.645Z,99747.66
2023-09-23T17:25:29.789Z,99738.75
2023-09-23T17:27:56.319Z,99739.72
2023-09-23T17:30:23.146Z,99737.22
2023-09-23T17:32:49.849Z,99731.97
2023-09-23T17:35:17.750Z,99734.59
2023-09-23T17:37:44.270Z,99734.94
2023-09-23T17:40:11.026Z,99733.13
2023-09-23T17:42:37.926Z,99715.69
2023-09-23T17:45:04.883Z,99716.59
2023-09-23T17:47:31.778Z,99709.50
2023-09-23T17:49:58.437Z,99710.34
2023-09-23T17:52:25.039Z,99702.41
2023-09-23T17:54:51.681Z,99701.44
2023-09-23T17:57:18.285Z,99695.72
2023-09-23T17:59:44.875Z,99695.00
2023-09-23T18:02:11.532Z,99693.50
2023-09-23T18:04:38.278Z,99694.31
2023-09-23T18:07:05.664Z,99692.63
2023-09-23T18:09:32.203Z,99695.34
2023-09-23T18:11:58.700Z,99697.22
2023-09-23T18:14:25.310Z,99690.69
2023-09-23T18:16:51.834Z,99685.91
2023-09-23T18:19:18.931Z,99682.25
2023-09-23T18:21:46.155Z,99682.09
2023-09-23T18:24:12.949Z,99678.66
2023-09-23T18:26:40.334Z,99666.56
2023-09-23T18:29:06.870Z,99663.03
2023-09-23T18:31:33.814Z,99661.09
2023-09-23T18:34:00.540Z,99649.56
2023-09-23T18:36:27.215Z,99656.97
2023-09-23T18:38:53.730Z,99659.59
2023-09-23T18:41:20.292Z,99664.56
2023-09-23T18:43:48.249Z,99659.00
2023-09-23T18:46:14.986Z,99647.94
2023-09-23T18:48:41.587Z,99654.25
2023-09-23T18:51:08.182Z,99650.00
2023-09-23T18:53:36.725Z,99661.75
2023-09-23T18:56:04.691Z,99657.41
2023-09-23T18:58:31.230Z,99667.13
2023-09-23T19:00:57.882Z,99661.72
2023-09-23T19:03:24.938Z,99668.91
2023-09-23T19:05:51.669Z,99675.28
2023-09-23T19:08:18.338Z,99673.28
2023-09-23T19:10:45.340Z,99675.09
2023-09-23T19:13:11.869Z,99687.47
2023-09-23T19:15:38.455Z,99690.03
2023-09-23T19:18:05.418Z,99696.84
2023-09-23T19:20:32.484Z,99699.03
2023-09-23T19:22:59.785Z,99703.56
2023-09-23T19:25:26.422Z,99707.03
2023-09-23T19:27:52.888Z,99710.56
2023-09-23T19:30:19.558Z,99706.34
2023-09-23T19:32:46.899Z,99715.84
2023-09-23T19:35:14.106Z,99721.84
2023-09-23T19:37:40.733Z,99718.97
2023-09-23T19:40:08.100Z,99721.59
2023-09-23T19:42:35.627Z,99716.59
2023-09-23T19:45:05.059Z,99716.59
2023-09-23T19:47:32.603Z,99700.81
2023-09-23T19:50:00.801Z,99715.69
2023-09-23T19:52:30.329Z,99707.03
2023-09-23T19:54:57.257Z,99717.69
2023-09-23T19:57:23.760Z,99716.03
2023-09-23T19:59:50.369Z,99711.53
2023-09-23T20:02:16.999Z,99719.13
2023-09-23T20:04:46.262Z,99711.81
2023-09-23T20:07:17.261Z,99703.97
2023-09-23T20:09:43.821Z,99710.13
2023-09-23T20:12:11.931Z,99710.22
2023-09-23T20:14:38.954Z,99708.50
2023-09-23T20:17:07.916Z,99717.28
2023-09-23T20:19:34.835Z,99719.78
2023-09-23T20:22:01.980Z,99730.22
2023-09-23T20:24:28.495Z,99735.22
2023-09-23T20:26:55.212Z,99735.22
2023-09-23T20:29:22.940Z,99741.78
2023-09-23T20:31:49.903Z,99729.84
2023-09-23T20:34:17.979Z,99729.69
2023-09-23T20:36:45.574Z,99719.84
2023-09-23T20:39:12.391Z,99713.09
2023-09-23T20:41:38.978Z,99711.91
2023-09-23T20:44:05.858Z,99719.41
2023-09-23T20:46:32.978Z,99725.84
2023-09-23T20:49:00.353Z,99733.41
2023-09-23T20:51:27.093Z,99731.41
2023-09-23T20:53:53.719Z,99729.81
2023-09-23T20:56:20.355Z,99733.09
2023-09-23T20:58:46.858Z,99735.81
2023-09-23T21:01:13.394Z,99722.13
2023-09-23T21:03:40.080Z,99709.50
2023-09-23T21:06:08.063Z,99697.22
2023-09-23T21:08:34.623Z,99691.88
2023-09-23T21:11:01.184Z,99696.34
2023-09-23T21:13:28.328Z,99689.44
2023-09-23T21:16:04.433Z,99683.53
2023-09-23T21:18:31.415Z,99679.53
2023-09-23T21:20:58.257Z,99676.13
2023-09-23T21:23:24.831Z,99677.88
2023-09-23T21:25:53.358Z,99676.25
2023-09-23T21:28:20.391Z,99677.34
2023-09-23T21:30:47.130Z,99684.56
2023-09-23T21:33:13.808Z,99675.94
2023-09-23T21:35:41.839Z,99672.38
2023-09-23T21:38:09.031Z,99681.16
2023-09-23T21:40:43.610Z,99674.22
2023-09-23T21:43:10.100Z,99682.22
2023-09-23T21:45:39.664Z,99669.88
2023-09-23T21:48:08.285Z,99656.81
2023-09-23T21:50:35.146Z,99667.16
2023-09-23T21:53:01.799Z,99668.78
2023-09-23T21:55:28.292Z,99670.59
2023-09-23T21:57:54.829Z,99675.00
2023-09-23T22:00:28.102Z,99679.25
2023-09-23T22:02:57.376Z,99677.41
2023-09-23T22:05:29.002Z,99678.88
2023-09-23T22:07:56.698Z,99677.16
2023-09-23T22:10:23.933Z,99674.78
2023-09-23T22:12:53.651Z,99680.97
2023-09-23T22:15:21.421Z,99682.72
2023-09-23T22:17:48.918Z,99678.31
2023-09-23T22:20:21.215Z,99675.69
2023-09-23T22:22:48.531Z,99659.84
2023-09-23T22:25:17.813Z,99657.59
2023-09-23T22:27:44.784Z,99654.97
2023-09-23T22:30:14.655Z,99666.19
2023-09-23T22:32:41.634Z,99675.53
2023-09-23T22:35:08.913Z,99673.97
2023-09-23T22:37:35.435Z,99672.94
2023-09-23T22:40:03.325Z,99669.59
2023-09-23T22:42:30.181Z,99677.25
2023-09-23T22:44:56.850Z,99678.09
2023-09-23T22:47:23.819Z,99683.16
2023-09-23T22:49:50.473Z,99684.69
2023-09-23T22:52:16.985Z,99703.88
2023-09-23T22:54:43.457Z,99720.22
2023-09-23T22:57:11.894Z,99740.22
2023-09-23T22:59:38.518Z,99754.69
2023-09-23T23:02:05.141Z,99760.31
2023-09-23T23:04:31.757Z,99760.41
2023-09-23T23:06:58.514Z,99754.28
2023-09-23T23:09:25.485Z,99749.91
2023-09-23T23:11:52.045Z,99743.72
2023-09-23T23:14:18.790Z,99761.91
2023-09-23T23:16:45.425Z,99760.56
2023-09-23T23:19:12.582Z,99763.34
2023-09-23T23:21:39.199Z,99752.13
2023-09-23T23:24:06.018Z,99753.78
2023-09-23T23:26:32.596Z,99761.44
2023-09-23T23:28:59.102Z,99765.78
2023-09-23T23:31:25.621Z,99764.91
2023-09-23T23:33:52.082Z,99765.50
2023-09-23T23:36:18.957Z,99749.94
2023-09-23T23:38:45.611Z,99738.94
2023-09-23T23:41:12.086Z,99737.13
2023-09-23T23:43:38.541Z,99741.31
2023-09-23T23:46:05.226Z,99731.78
2023-09-23T23:48:32.725Z,99734.56
2023-09-23T23:51:06.470Z,99737.28
2023-09-23T23:53:34.274Z,99753.84
2023-09-23T23:56:01.889Z,99753.69
2023-09-23T23:58:28.465Z,99756.34
